Latest Coastal Weather Observations for Esperance

IDW60701

Issued at 12:22 am WST Friday 19 December 2014 (issued every 10 minutes, with the page automatically refreshed every 10 minutes)

About coastal observations | Map of coastal stations | Coastal observations for WA | Marine services | Other Formats
Station Details ID: 009789 Name: ESPERANCE Lat: -33.83 Lon: 121.89 Height: 25.0 m
Data from the previous 72 hours. | See also: Recent months at Esperance
Date/Time
WST
Temp

°C
Wind Pressure Rain
since 9am
mm
Weather Cloud Vis
km
Sea
Height
m
Swell
Dir
 
Speed
knots
Gust
knots
hPa Trend Height
m
Period
s
Dir
19/12:00am 13.3 E 5 8 1019.8 R 0.0 - - 10 - - - -
 
Date/Time
WST
Temp

°C
Wind Pressure Rain
since 9am
mm
Weather Cloud Vis
km
Sea
Height
m
Swell
Dir
 
Speed
knots
Gust
knots
hPa Trend Height
m
Period
s
Dir
18/11:30pm 13.8 ENE 6 9 1020.0 - 0.0 - - 10 - - - -
18/11:00pm 14.2 ENE 6 9 1020.1 - 0.0 - - 10 - - - -
18/10:30pm 14.5 ENE 6 9 1020.2 - 0.0 - - 10 - - - -
18/10:00pm 14.5 ENE 5 7 1020.1 - 0.0 - - 10 - - - -
18/09:30pm 14.8 E 5 7 1019.9 - 0.0 - - 10 - - - -
18/09:00pm 15.5 E 6 9 1019.8 R 0.0 - - 10 - - - -
18/08:30pm 16.3 E 6 10 1019.6 - 0.0 - - 10 - - - -
18/08:00pm 17.0 ESE 10 15 1019.3 - 0.0 - - 10 - - - -
18/07:30pm 17.4 ESE 11 17 1019.1 - 0.0 - - 10 - - - -
18/07:00pm 17.7 SE 11 14 1018.8 - 0.0 - - 10 - - - -
18/06:30pm 18.4 SE 12 16 1018.7 - 0.0 - - 10 - - - -
18/06:00pm 18.6 SE 13 17 1018.6 F 0.0 - - 10 - - - -
18/05:30pm 19.0 SE 13 18 1018.4 - 0.0 - - 10 - - - -
18/05:00pm 19.1 SE 15 19 1018.2 - 0.0 - - 10 - - - -
18/04:30pm 19.3 SSE 16 20 1018.1 - 0.0 - - 10 - - - -
18/04:00pm 19.6 SSE 15 19 1018.2 - 0.0 - - 10 - - - -
18/03:30pm 19.8 SSE 14 19 1018.2 - 0.0 - - 10 - - - -
18/03:00pm 20.4 SSE 14 19 1018.5 R 0.0 Haze Clear 12 - - - -
18/02:30pm 20.4 SSE 13 18 1018.5 - 0.0 - - 10 - - - -
18/02:00pm 20.1 SSE 12 17 1018.7 - 0.0 - - 10 - - - -
18/01:30pm 20.7 SSE 13 17 1018.7 - 0.0 - Mostly clear 10 - - - -
18/01:00pm 21.2 SSE 13 16 1018.8 - 0.0 - Mostly clear 10 - - - -
18/12:30pm 21.1 SE 13 17 1018.7 - 0.0 - Mostly clear 10 - - - -
18/12:00pm 20.9 SSE 12 16 1018.9 R 0.0 Haze Mostly clear 18 - - - -
18/11:30am 20.6 SE 11 15 1019.2 - 0.0 - Mostly clear 10 - - - -
18/11:00am 20.8 SSE 11 13 1019.2 - 0.0 - Mostly clear 10 - - - -
18/10:30am 20.3 SSE 11 15 1019.3 - 0.0 - Mostly clear 10 - - - -
18/10:00am 20.9 SE 12 15 1019.2 - 0.0 - Mostly clear 10 - - - -
18/09:30am 20.4 SE 11 16 1019.2 - 0.0 - Mostly clear 10 - - - -
18/09:00am 20.3 SE 9 13 1019.1 R 0.0 Fine Mostly clear 25 - - - -
18/08:30am 20.0 SE 8 12 1019.1 - - - Mostly clear 10 - - - -
18/08:00am 20.1 SSE 6 11 1019.0 - - - Mostly clear 10 - - - -
18/07:30am 19.2 SSE 7 11 1018.8 - - - Mostly clear 10 - - - -
18/07:00am 18.8 SE 3 5 1018.7 - - - Mostly clear 10 - - - -
18/06:30am 16.3 WNW 4 5 1018.4 - - - Mostly clear 10 - - - -
18/06:00am 14.2 WNW 5 7 1017.9 R - Fine Mostly clear 25 - - - -
18/05:30am 13.9 WNW 5 7 1017.5 - - - Partly cloudy 10 - - - -
18/05:00am 14.1 WNW 5 6 1017.1 - - - Cloudy 10 - - - -
18/04:30am 14.0 WNW 4 6 1016.9 - - - Partly cloudy 10 - - - -
18/04:00am 15.1 SW 4 7 1016.5 - - - Partly cloudy 10 - - - -
18/03:30am 15.8 SW 5 7 1016.2 - - - Partly cloudy 10 - - - -
18/03:00am 15.5 SSW 5 7 1015.9 R 0.0 - Partly cloudy 10 - - - -
18/02:30am 15.4 SW 5 6 1015.7 - - - Partly cloudy 10 - - - -
18/02:00am 15.2 WSW 5 6 1015.8 - - - Partly cloudy 10 - - - -
18/01:30am 15.5 SW 4 5 1015.7 - - - Partly cloudy 10 - - - -
18/01:00am 15.5 SSW 5 6 1015.7 - - - - 10 - - - -
18/12:30am 15.7 SSW 6 9 1015.7 - - - Partly cloudy 10 - - - -
18/12:00am 15.9 SSW 7 10 1015.6 R - - - 10 - - - -
 
Date/Time
WST
Temp

°C
Wind Pressure Rain
since 9am
mm
Weather Cloud Vis
km
Sea
Height
m
Swell
Dir
 
Speed
knots
Gust
knots
hPa Trend Height
m
Period
s
Dir
17/11:30pm 16.0 SSW 7 10 1015.7 - - - - 10 - - - -
17/11:00pm 16.3 SSW 7 10 1015.8 - - - Partly cloudy 10 - - - -
17/10:30pm 16.4 SSW 7 10 1015.9 - - - Partly cloudy 10 - - - -
17/10:00pm 16.3 SSW 6 9 1015.7 - - - Partly cloudy 10 - - - -
17/09:30pm 16.5 SSW 9 14 1015.5 - - - Partly cloudy 10 - - - -
17/09:00pm 16.6 SSW 8 12 1015.4 R 0.0 - Partly cloudy 10 - - - -
17/08:30pm 16.4 SW 7 9 1015.1 - - - Partly cloudy 10 - - - -
17/08:00pm 16.2 SW 7 9 1014.7 - - - Mostly clear 10 - - - -
17/07:30pm 16.6 SSW 7 10 1014.5 - - - Mostly clear 10 - - - -
17/07:00pm 17.2 SSW 9 12 1014.3 - - - Partly cloudy 10 - - - -
17/06:30pm 17.7 SSW 9 16 1014.2 - - - Partly cloudy 10 - - - -
17/06:00pm 18.2 SW 10 17 1013.8 R - Fine Partly cloudy 30 - - - -
17/05:30pm 18.4 SSW 11 18 1013.3 - - - Mostly clear 10 - - - -
17/05:00pm 18.5 SSW 11 18 1012.9 - - - Mostly clear 10 - - - -
17/04:30pm 18.7 SSW 13 19 1012.6 - - - Mostly clear 10 - - - -
17/04:00pm 19.5 SSW 13 20 1012.3 - - - Mostly clear 10 - - - -
17/03:30pm 19.2 SSW 15 20 1012.1 - - - Mostly clear 10 - - - -
17/03:00pm 19.3 SSW 12 21 1012.0 R 0.0 Fine Mostly clear 30 - - - -
17/02:30pm 19.5 SSW 15 23 1012.0 - - - Mostly clear 10 - - - -
17/02:00pm 20.1 SSW 13 20 1011.9 - - - Mostly clear 10 - - - -
17/01:30pm 20.5 SSW 11 19 1011.7 - - - Mostly clear 10 - - - -
17/01:00pm 20.3 SSW 13 18 1011.7 - - - Mostly clear 10 - - - -
17/12:30pm 20.5 S 12 17 1011.6 - - - Mostly clear 10 - - - -
17/12:00pm 20.7 S 11 15 1011.8 R - Fine Partly cloudy 30 - - - -
17/11:33am 19.8 SE 12 15 1012.0 - 0.0 - Mostly clear 10 - - - -
17/11:04am 20.1 SE 8 12 1011.6 - - - Mostly clear 10 - - - -
17/10:30am 19.5 SE 10 14 1011.8 - - - Partly cloudy 10 - - - -
17/10:00am 19.2 SE 10 - 1012.0 - - - Partly cloudy 10 - - - -
17/09:30am 17.9 SE 8 11 1012.2 - 0.0 - Mostly cloudy 10 - - - -
17/09:00am 17.6 SSE 9 12 1012.5 F 0.0 Fine Mostly cloudy 25 - - - -
17/08:30am 17.0 SSE 9 11 1012.7 - 0.0 - Mostly clear 10 - - - -
17/08:00am 17.0 SSE 10 13 1012.5 - 0.0 - Mostly clear 10 - - - -
17/07:30am 15.9 SSW 4 5 1012.8 - 0.0 - Mostly clear 10 - - - -
17/07:00am 15.5 W 3 4 1012.8 - 0.0 - Mostly clear 10 - - - -
17/06:30am 14.8 WNW 3 4 1012.5 - 0.0 - Mostly cloudy 10 - - - -
17/06:00am 13.6 NW 1 4 1012.3 R 0.0 Haze Mostly cloudy 20 - - - -
17/05:30am 12.5 NNW 3 5 1012.1 - 0.0 - Partly cloudy 10 - - - -
17/05:00am 11.5 NW 4 5 1011.8 - 0.0 - Cloudy 10 - - - -
17/04:30am 11.1 WNW 4 5 1011.5 - 0.0 - Cloudy 10 - - - -
17/04:00am 11.5 W 4 4 1011.4 - 0.0 - Partly cloudy 10 - - - -
17/03:30am 11.5 NNW 4 5 1011.1 - 0.0 - - 10 - - - -
17/03:00am 11.0 SW 4 5 1011.0 R 0.0 - - 10 - - - -
17/02:30am 11.1 SSW 2 5 1010.8 - 0.0 - - 10 - - - -
17/02:00am 11.4 NNW 2 4 1010.7 - 0.0 - - 10 - - - -
17/01:30am 11.7 N 5 6 1010.8 - 0.0 - - 10 - - - -
17/01:00am 11.7 N 5 6 1010.9 - 0.0 - - 10 - - - -
17/12:30am 12.2 NNE 6 7 1010.9 - 0.0 - - 10 - - - -
17/12:00am 12.6 NNE 7 9 1011.2 F 0.0 - - 10 - - - -
 
Date/Time
WST
Temp

°C
Wind Pressure Rain
since 9am
mm
Weather Cloud Vis
km
Sea
Height
m
Swell
Dir
 
Speed
knots
Gust
knots
hPa Trend Height
m
Period
s
Dir
16/11:30pm 12.7 NNE 6 7 1011.5 - 0.0 - - 10 - - - -
16/11:00pm 13.0 NNE 6 8 1011.8 - 0.0 - - 10 - - - -
16/10:30pm 13.2 NNE 5 6 1011.9 - 0.0 - - 10 - - - -
16/10:00pm 13.4 ENE 5 7 1012.0 - 0.0 - - 10 - - - -
16/09:30pm 14.2 ENE 5 8 1012.1 - 0.0 - - 10 - - - -
16/09:00pm 14.7 E 6 8 1012.3 F 0.0 - - 10 - - - -
16/08:30pm 15.7 ESE 8 13 1012.1 - 0.0 - - 10 - - - -
16/08:00pm 16.0 SE 10 14 1011.9 - 0.0 - - 10 - - - -
16/07:30pm 16.2 SE 10 13 1012.0 - 0.0 - - 10 - - - -
16/07:00pm 16.3 SE 11 15 1011.9 - 0.0 - - 10 - - - -
16/06:30pm 16.6 SE 11 15 1011.9 - 0.0 - - 10 - - - -
16/06:00pm 16.9 SE 13 17 1012.0 F 0.0 Fine Mostly clear 30 - - - -
16/05:30pm 17.3 SE 13 18 1012.0 - 0.0 - - 10 - - - -
16/05:00pm 17.5 SSE 14 17 1012.0 - 0.0 - Mostly clear 10 - - - -
16/04:30pm 17.9 SSE 13 19 1011.8 - 0.0 - Mostly clear 10 - - - -
16/04:00pm 18.1 SSE 13 17 1012.0 - 0.0 - Mostly clear 10 - - - -
16/03:30pm 18.6 SSE 13 17 1012.2 - 0.0 - Mostly clear 10 - - - -
16/03:00pm 18.4 S 13 19 1012.5 F 0.0 Fine Mostly clear 30 - - - -
16/02:30pm 19.2 S 11 18 1012.7 - 0.0 - Mostly clear 10 - - - -
16/02:00pm 18.9 SSE 11 17 1012.8 - 0.0 - Mostly clear 10 - - - -
16/01:30pm 18.5 SSE 12 17 1013.1 - 0.0 - Partly cloudy 10 - - - -
16/01:00pm 19.1 S 10 15 1013.4 - 0.0 - Mostly clear 10 - - - -
16/12:30pm 18.9 S 9 15 1013.6 - 0.0 - Mostly clear 10 - - - -
16/12:00pm 18.4 S 9 14 1014.0 R 0.0 Fine Mostly cloudy 30 - - - -
16/11:30am 18.5 S 9 12 1014.3 - 0.0 - Mostly clear 10 - - - -
16/11:00am 19.2 SSW 9 14 1014.4 - 0.0 - Mostly clear 10 - - - -
16/10:30am 18.0 S 9 15 1014.7 - 0.0 - Mostly clear 10 - - - -
16/10:00am 17.4 S 9 12 1014.6 - 0.0 - Mostly clear 10 - - - -
16/09:30am 18.0 S 8 12 1014.5 - 0.0 - Mostly clear 10 - - - -
16/09:00am 17.9 SSE 9 14 1014.4 R 0.0 Fine Mostly cloudy 30 - - - -
16/08:30am 17.7 SSW 7 11 1014.3 - 0.0 - Mostly clear 10 - - - -
16/08:00am 17.8 SSW 7 10 1014.3 - 0.0 - Mostly clear 10 - - - -
16/07:30am 16.6 S 5 7 1014.2 - 0.0 - Mostly clear 10 - - - -
16/07:00am 15.8 S 10 15 1014.0 - 0.0 - Mostly clear 10 - - - -
16/06:30am 16.0 SW 5 9 1013.7 - 0.0 - Mostly clear 10 - - - -
16/06:00am 15.9 SSW 7 11 1013.3 R 0.0 Distant precip. Partly cloudy 30 - - - -
16/05:30am 16.5 SSW 9 15 1012.9 - 0.0 - Cloudy 10 - - - -
16/05:00am 15.3 SSW 9 12 1012.6 - 0.0 - Partly cloudy 10 - - - -
16/04:30am 15.7 SSW 11 18 1012.3 - 0.0 - Partly cloudy 10 - - - -
16/04:00am 15.7 S 10 15 1011.8 - 0.0 - Partly cloudy 10 - - - -
16/03:30am 15.9 SSW 9 13 1011.6 - 0.0 - Partly cloudy 10 - - - -
16/03:00am 15.7 SW 8 13 1011.3 S 0.0 - Cloudy 10 - - - -
16/02:30am 15.4 SW 10 15 1011.1 - 0.0 - Partly cloudy 10 - - - -
16/02:00am 15.6 SW 10 17 1011.2 - 0.0 - Partly cloudy 10 - - - -
16/01:30am 15.8 SW 9 15 1011.3 - 0.0 - Partly cloudy 10 - - - -
16/01:00am 15.6 SW 8 13 1011.4 - 0.0 - Partly cloudy 10 - - - -
16/12:30am 15.7 SW 9 20 1011.6 - 0.0 - Partly cloudy 10 - - - -

Other Formats:

Comma delimited format used in spreadsheet applications
http://www.bom.gov.au/fwo/IDW60701/IDW60701.94638.axf

JavaScript Object Notation format (JSON) in row-major order
http://www.bom.gov.au/fwo/IDW60701/IDW60701.94638.json